Time;durP1;ratioP1;P1;durP2;ratioP2;P2;SDS_P1;SDS_P2;PMS_P1;PMS_P2;Temp;Humidity;BMP_temperature;BMP_pressure;BME280_temperature;BME280_humidity;BME280_pressure;Samples;Min_cycle;Max_cycle;Signal;HPM_P1;HPM_P2
2023/12/16 00:01:41;;;;;;;24.83;16.77;;;5.50;99.90;;;;;;5052168;28;20770;-59
2023/12/16 00:04:08;;;;;;;21.67;15.52;;;5.60;99.90;;;;;;5052360;28;20216;-59
2023/12/16 00:06:35;;;;;;;23.65;15.50;;;5.60;99.90;;;;;;5052000;28;20688;-59
2023/12/16 00:09:03;;;;;;;23.88;16.40;;;5.60;99.90;;;;;;5051818;28;20215;-57
2023/12/16 00:11:30;;;;;;;18.90;14.73;;;5.60;99.90;;;;;;5052358;28;20293;-56
2023/12/16 00:13:57;;;;;;;20.27;15.80;;;5.60;99.90;;;;;;5051726;28;20228;-58
2023/12/16 00:16:25;;;;;;;19.65;14.70;;;5.60;99.90;;;;;;5052033;28;20310;-59
2023/12/16 00:18:52;;;;;;;20.75;15.82;;;5.60;99.90;;;;;;5051760;28;20213;-57
2023/12/16 00:21:19;;;;;;;15.98;13.52;;;5.60;99.90;;;;;;5051993;28;20221;-59
2023/12/16 00:23:46;;;;;;;17.27;11.13;;;5.60;99.90;;;;;;5051693;28;20237;-58
2023/12/16 00:26:14;;;;;;;21.60;15.05;;;5.60;99.90;;;;;;5051751;28;20241;-58
2023/12/16 00:28:41;;;;;;;19.67;14.07;;;5.60;99.90;;;;;;5051410;28;20230;-55
2023/12/16 00:31:08;;;;;;;19.85;17.38;;;5.60;99.90;;;;;;5051041;28;20202;-58
2023/12/16 00:33:34;;;;;;;20.08;14.88;;;5.60;99.90;;;;;;5051527;28;20316;-58
2023/12/16 00:36:01;;;;;;;23.15;14.57;;;5.60;99.90;;;;;;5051614;28;20206;-57
2023/12/16 00:38:28;;;;;;;16.80;12.98;;;5.60;99.90;;;;;;5051384;28;20205;-57
2023/12/16 00:40:55;;;;;;;21.45;16.75;;;5.50;99.90;;;;;;5050594;28;20211;-56
2023/12/16 00:43:23;;;;;;;21.15;14.93;;;5.60;99.90;;;;;;5051160;28;20228;-55
2023/12/16 00:45:50;;;;;;;21.40;14.73;;;5.60;99.90;;;;;;5050830;28;20209;-55
2023/12/16 00:48:17;;;;;;;20.33;14.70;;;5.60;99.90;;;;;;5051022;28;20222;-57
2023/12/16 00:50:43;;;;;;;19.25;14.52;;;5.50;99.90;;;;;;5051722;28;20203;-57
2023/12/16 00:53:10;;;;;;;18.98;13.30;;;5.60;99.90;;;;;;5051046;28;20218;-56
2023/12/16 00:55:38;;;;;;;19.40;16.00;;;5.60;99.90;;;;;;5051332;28;20215;-54
2023/12/16 00:58:05;;;;;;;16.67;13.65;;;5.60;99.90;;;;;;5051136;28;20201;-56
2023/12/16 01:00:33;;;;;;;25.30;14.65;;;5.60;99.90;;;;;;5051401;28;20215;-57
2023/12/16 01:03:00;;;;;;;19.80;14.20;;;5.60;99.90;;;;;;5050050;28;20225;-56
2023/12/16 01:05:27;;;;;;;17.40;13.43;;;5.60;99.90;;;;;;5051114;28;20207;-56
2023/12/16 01:07:54;;;;;;;15.10;12.60;;;5.60;99.90;;;;;;5050622;28;20249;-58
2023/12/16 01:10:21;;;;;;;21.35;14.00;;;5.60;99.90;;;;;;5050937;28;20681;-54
2023/12/16 01:12:47;;;;;;;16.05;14.00;;;5.60;99.90;;;;;;5051038;28;20936;-54
2023/12/16 01:15:15;;;;;;;22.92;16.38;;;5.60;99.90;;;;;;5048711;28;20294;-56
2023/12/16 01:17:44;;;;;;;24.92;16.58;;;5.60;99.90;;;;;;5050475;28;20711;-53
2023/12/16 01:20:11;;;;;;;20.35;14.57;;;5.60;99.90;;;;;;5050352;28;20206;-56
2023/12/16 01:22:38;;;;;;;18.70;15.57;;;5.60;99.90;;;;;;5049386;28;20313;-58
2023/12/16 01:25:06;;;;;;;19.35;14.93;;;5.60;99.90;;;;;;5050771;28;20264;-54
2023/12/16 01:27:33;;;;;;;20.63;14.88;;;5.60;99.90;;;;;;5050812;28;20604;-59
2023/12/16 01:30:00;;;;;;;17.95;14.07;;;5.60;99.90;;;;;;5050066;28;20214;-57
2023/12/16 01:32:27;;;;;;;21.88;16.33;;;5.60;99.90;;;;;;5050551;28;20260;-58
2023/12/16 01:34:56;;;;;;;20.80;14.27;;;5.60;99.90;;;;;;5050320;28;20218;-56
2023/12/16 01:37:23;;;;;;;17.52;13.00;;;5.60;99.90;;;;;;5050340;28;20205;-58
2023/12/16 01:39:48;;;;;;;20.45;15.40;;;5.60;99.90;;;;;;5050598;28;20302;-54
2023/12/16 01:42:15;;;;;;;22.77;13.97;;;5.60;99.90;;;;;;5050775;28;20301;-58
2023/12/16 01:44:42;;;;;;;17.27;13.02;;;5.60;99.90;;;;;;5050625;28;20291;-53
2023/12/16 01:47:09;;;;;;;18.25;16.02;;;5.60;99.90;;;;;;5049897;28;20236;-56
2023/12/16 01:49:37;;;;;;;16.50;14.65;;;5.50;99.90;;;;;;5044778;28;20290;-55
2023/12/16 01:52:07;;;;;;;17.55;15.18;;;5.50;99.90;;;;;;5047581;28;20755;-57
2023/12/16 01:54:35;;;;;;;20.13;14.60;;;5.60;99.90;;;;;;5051404;28;20256;-53
2023/12/16 01:57:03;;;;;;;19.05;13.25;;;5.60;99.90;;;;;;5049622;28;20260;-58
2023/12/16 01:59:30;;;;;;;23.25;16.83;;;5.60;99.90;;;;;;5050563;28;20691;-53
2023/12/16 02:01:57;;;;;;;19.02;12.98;;;5.60;99.90;;;;;;5051154;28;20590;-58
2023/12/16 02:04:24;;;;;;;20.55;14.15;;;5.60;99.90;;;;;;5051174;28;20214;-56
2023/12/16 02:06:51;;;;;;;22.95;15.85;;;5.60;99.90;;;;;;5051404;28;20580;-58
2023/12/16 02:09:19;;;;;;;20.85;15.02;;;5.60;99.90;;;;;;5050958;28;20222;-54
2023/12/16 02:11:46;;;;;;;25.85;14.93;;;5.60;99.90;;;;;;5051086;28;20739;-56
2023/12/16 02:14:13;;;;;;;19.80;13.95;;;5.60;99.90;;;;;;5051165;28;20663;-58
2023/12/16 02:16:40;;;;;;;18.95;15.48;;;5.60;99.90;;;;;;5055014;28;20242;-55
2023/12/16 02:19:11;;;;;;;15.68;12.65;;;5.60;99.90;;;;;;5054658;28;20279;-56
2023/12/16 02:21:39;;;;;;;22.35;13.75;;;5.60;99.90;;;;;;5055216;28;20210;-58
2023/12/16 02:24:07;;;;;;;18.65;13.75;;;5.60;99.90;;;;;;5055118;28;20232;-57
2023/12/16 02:26:34;;;;;;;21.42;14.60;;;5.60;99.90;;;;;;5054950;28;20293;-56
2023/12/16 02:29:01;;;;;;;23.08;15.25;;;5.60;99.90;;;;;;5054523;28;20231;-54
2023/12/16 02:31:29;;;;;;;18.05;14.00;;;5.60;99.90;;;;;;5054823;28;20641;-57
2023/12/16 02:33:56;;;;;;;22.73;14.85;;;5.60;99.90;;;;;;5054577;28;20608;-54
2023/12/16 02:36:23;;;;;;;20.45;14.98;;;5.60;99.90;;;;;;5054587;28;20301;-57
2023/12/16 02:38:49;;;;;;;17.77;14.10;;;5.50;99.90;;;;;;5054578;28;20213;-58
2023/12/16 02:41:17;;;;;;;17.02;14.15;;;5.60;99.90;;;;;;5054698;28;20210;-57
2023/12/16 02:43:44;;;;;;;17.15;14.95;;;5.50;99.90;;;;;;5054390;28;20253;-58
2023/12/16 02:46:11;;;;;;;22.65;15.70;;;5.50;99.90;;;;;;5054539;28;20293;-55
2023/12/16 02:48:38;;;;;;;16.83;14.18;;;5.50;99.90;;;;;;5054552;28;20603;-58
2023/12/16 02:51:05;;;;;;;20.77;12.50;;;5.50;99.90;;;;;;5053586;28;20700;-58
2023/12/16 02:53:32;;;;;;;21.70;15.35;;;5.50;99.90;;;;;;5054457;28;20317;-54
2023/12/16 02:55:59;;;;;;;18.27;14.68;;;5.50;99.90;;;;;;5054483;28;20218;-57
2023/12/16 02:58:27;;;;;;;14.68;12.82;;;5.50;99.90;;;;;;5054074;28;20202;-59
2023/12/16 03:00:54;;;;;;;20.70;13.45;;;5.50;99.90;;;;;;5054368;28;20732;-56
2023/12/16 03:03:21;;;;;;;19.60;13.35;;;5.50;99.90;;;;;;5054276;28;20231;-59
2023/12/16 03:05:48;;;;;;;18.90;13.55;;;5.50;99.90;;;;;;5054327;28;20206;-54
2023/12/16 03:08:15;;;;;;;23.98;13.15;;;5.40;99.90;;;;;;5054074;28;20226;-57
2023/12/16 03:10:42;;;;;;;17.63;12.13;;;5.40;99.90;;;;;;5054168;28;20298;-57
2023/12/16 03:13:09;;;;;;;18.95;14.48;;;5.40;99.90;;;;;;5053980;28;20230;-54
2023/12/16 03:15:37;;;;;;;19.63;13.27;;;5.40;99.90;;;;;;5054296;28;20623;-58
2023/12/16 03:18:04;;;;;;;16.67;12.00;;;5.40;99.90;;;;;;5053676;28;20234;-56
2023/12/16 03:20:31;;;;;;;16.88;13.00;;;5.40;99.90;;;;;;5054043;28;20206;-56
2023/12/16 03:22:58;;;;;;;21.13;15.00;;;5.40;99.90;;;;;;5053825;28;20310;-54
2023/12/16 03:25:24;;;;;;;18.77;14.73;;;5.40;99.90;;;;;;5053896;28;20202;-58
2023/12/16 03:27:51;;;;;;;18.20;12.70;;;5.40;99.90;;;;;;5052576;28;20313;-57
2023/12/16 03:30:18;;;;;;;20.65;13.95;;;5.40;99.90;;;;;;5053924;28;20206;-58
2023/12/16 03:32:46;;;;;;;20.27;14.52;;;5.30;99.90;;;;;;5053433;28;20326;-56
2023/12/16 03:35:13;;;;;;;21.50;15.35;;;5.30;99.90;;;;;;5053643;28;20202;-56
2023/12/16 03:37:40;;;;;;;19.40;14.85;;;5.30;99.90;;;;;;5053482;28;20210;-55
2023/12/16 03:40:08;;;;;;;24.92;14.55;;;5.30;99.90;;;;;;5053579;28;20206;-58
2023/12/16 03:42:35;;;;;;;17.30;12.63;;;5.30;99.90;;;;;;5053976;28;20226;-57
2023/12/16 03:45:02;;;;;;;17.98;13.48;;;5.30;99.90;;;;;;5053516;28;20202;-57
2023/12/16 03:47:28;;;;;;;22.08;14.38;;;5.30;99.90;;;;;;5053439;28;20222;-57
2023/12/16 03:49:57;;;;;;;23.92;14.77;;;5.30;99.90;;;;;;5053234;28;20316;-57
2023/12/16 03:52:23;;;;;;;21.15;14.43;;;5.30;99.90;;;;;;5053372;28;20252;-55
2023/12/16 03:54:50;;;;;;;20.50;14.38;;;5.30;99.90;;;;;;5053281;28;20297;-58
2023/12/16 03:57:17;;;;;;;19.70;13.65;;;5.20;99.90;;;;;;5053469;28;20313;-57
2023/12/16 03:59:44;;;;;;;21.15;14.68;;;5.20;99.90;;;;;;5053259;28;20764;-54
2023/12/16 04:02:11;;;;;;;15.02;12.77;;;5.30;99.90;;;;;;5053282;28;20222;-57
2023/12/16 04:04:38;;;;;;;22.92;14.40;;;5.20;99.90;;;;;;5053030;28;20691;-56
2023/12/16 04:07:06;;;;;;;20.50;13.10;;;5.20;99.90;;;;;;5053034;28;20213;-54
2023/12/16 04:09:33;;;;;;;17.17;12.02;;;5.20;99.90;;;;;;5052749;28;20226;-57
2023/12/16 04:11:59;;;;;;;17.60;12.52;;;5.30;99.90;;;;;;5053179;28;20206;-57
2023/12/16 04:14:26;;;;;;;17.35;13.63;;;5.20;99.90;;;;;;5053095;28;20210;-58
2023/12/16 04:16:53;;;;;;;19.95;13.80;;;5.20;99.90;;;;;;5052861;28;20309;-57
2023/12/16 04:19:20;;;;;;;17.55;14.18;;;5.30;99.90;;;;;;5052784;28;20579;-55
2023/12/16 04:21:47;;;;;;;17.75;13.85;;;5.30;99.90;;;;;;5052742;28;20688;-58
2023/12/16 04:24:15;;;;;;;18.30;12.95;;;5.30;99.90;;;;;;5052779;28;20843;-58
2023/12/16 04:26:42;;;;;;;20.25;15.40;;;5.20;99.90;;;;;;5052680;28;20211;-55
2023/12/16 04:29:09;;;;;;;25.83;15.02;;;5.30;99.90;;;;;;5052613;28;20238;-55
2023/12/16 04:31:36;;;;;;;13.38;11.23;;;5.30;99.90;;;;;;5052771;28;20272;-58
2023/12/16 04:34:02;;;;;;;15.20;12.65;;;5.20;99.90;;;;;;5076609;22;20240;-60
2023/12/16 04:36:29;;;;;;;17.42;11.90;;;5.20;99.90;;;;;;5052270;28;20232;-61
2023/12/16 04:38:57;;;;;;;15.57;13.07;;;5.20;99.90;;;;;;5052513;28;20693;-60
2023/12/16 04:41:25;;;;;;;17.92;12.18;;;5.30;99.90;;;;;;5052586;28;20229;-60
2023/12/16 04:43:53;;;;;;;15.52;11.43;;;5.20;99.90;;;;;;5052322;28;20751;-60
2023/12/16 04:46:20;;;;;;;16.35;11.48;;;5.20;99.90;;;;;;5051267;28;20206;-61
2023/12/16 04:48:47;;;;;;;15.88;12.20;;;5.20;99.90;;;;;;5052033;28;20230;-60
2023/12/16 04:51:14;;;;;;;15.02;11.88;;;5.20;99.90;;;;;;5052181;28;20588;-60
2023/12/16 04:53:41;;;;;;;13.95;12.50;;;5.20;99.90;;;;;;5052415;28;20248;-61
2023/12/16 04:56:08;;;;;;;16.23;12.13;;;5.20;99.90;;;;;;5052119;28;20210;-61
2023/12/16 04:58:36;;;;;;;16.30;13.45;;;5.20;99.90;;;;;;5052032;28;20224;-60
2023/12/16 05:01:04;;;;;;;15.88;11.35;;;5.10;99.90;;;;;;5052113;28;20213;-60
2023/12/16 05:03:31;;;;;;;17.25;12.82;;;5.10;99.90;;;;;;5051872;28;20230;-61
2023/12/16 05:05:58;;;;;;;14.82;11.35;;;5.10;99.90;;;;;;5051929;28;20808;-61
2023/12/16 05:08:25;;;;;;;17.65;12.45;;;5.10;99.90;;;;;;5051563;28;20581;-60
2023/12/16 05:10:52;;;;;;;18.23;12.45;;;5.10;99.90;;;;;;5052020;28;20217;-59
2023/12/16 05:13:19;;;;;;;14.65;11.65;;;5.10;99.90;;;;;;5051927;28;20230;-61
2023/12/16 05:15:47;;;;;;;17.23;11.20;;;5.10;99.90;;;;;;5051932;28;20316;-61
2023/12/16 05:18:13;;;;;;;14.73;11.45;;;5.10;99.90;;;;;;5051449;28;20206;-60
2023/12/16 05:20:40;;;;;;;17.63;12.43;;;5.00;99.90;;;;;;5051805;28;20297;-59
2023/12/16 05:23:07;;;;;;;17.13;12.35;;;5.00;99.90;;;;;;5051651;28;20227;-59
2023/12/16 05:25:35;;;;;;;16.48;11.00;;;5.00;99.90;;;;;;5051843;28;20212;-60
2023/12/16 05:28:03;;;;;;;14.55;11.32;;;5.00;99.90;;;;;;5051556;28;20297;-61
2023/12/16 05:30:29;;;;;;;14.98;11.00;;;5.00;99.90;;;;;;5051566;28;20230;-61
2023/12/16 05:32:57;;;;;;;18.15;12.07;;;5.00;99.90;;;;;;5051289;28;20238;-61
2023/12/16 05:35:24;;;;;;;16.27;11.75;;;5.00;99.90;;;;;;5051839;28;20715;-57
2023/12/16 05:37:51;;;;;;;13.50;10.75;;;5.00;99.90;;;;;;5051498;28;20206;-61
2023/12/16 05:40:18;;;;;;;13.70;10.93;;;5.00;99.90;;;;;;5051690;28;20208;-59
2023/12/16 05:42:45;;;;;;;13.88;11.43;;;5.00;99.90;;;;;;5051409;28;20728;-61
2023/12/16 05:45:13;;;;;;;14.55;12.90;;;5.00;99.90;;;;;;5051693;28;20203;-59
2023/12/16 05:47:40;;;;;;;15.88;11.80;;;5.00;99.90;;;;;;5051404;28;20216;-61
2023/12/16 05:50:09;;;;;;;17.27;11.70;;;5.00;99.90;;;;;;5055067;28;20325;-60
2023/12/16 05:52:36;;;;;;;16.52;11.05;;;5.00;99.90;;;;;;5058143;28;20230;-61
2023/12/16 05:55:04;;;;;;;11.45;9.38;;;5.00;99.90;;;;;;5057998;28;20669;-57
2023/12/16 05:57:31;;;;;;;18.42;10.82;;;5.00;99.90;;;;;;5057957;28;20220;-61
2023/12/16 05:59:57;;;;;;;15.45;11.40;;;5.00;99.90;;;;;;5057738;28;20293;-61
2023/12/16 06:02:25;;;;;;;20.00;12.60;;;5.00;99.90;;;;;;5058115;28;20592;-61
2023/12/16 06:04:52;;;;;;;28.75;11.82;;;5.00;99.90;;;;;;5058104;28;20302;-57
2023/12/16 06:07:20;;;;;;;14.02;11.00;;;5.00;99.90;;;;;;5058011;28;20601;-59
2023/12/16 06:09:47;;;;;;;21.27;12.77;;;4.90;99.90;;;;;;5057844;28;20721;-60
2023/12/16 06:12:14;;;;;;;13.50;11.23;;;5.00;99.90;;;;;;5057938;28;20312;-60
2023/12/16 06:14:40;;;;;;;13.88;10.55;;;4.90;99.90;;;;;;5058101;28;20214;-61
2023/12/16 06:17:07;;;;;;;11.25;9.88;;;4.90;99.90;;;;;;5057724;28;20210;-58
2023/12/16 06:19:34;;;;;;;10.85;9.50;;;4.90;99.90;;;;;;5057901;28;20209;-60
2023/12/16 06:22:01;;;;;;;11.40;9.93;;;4.90;99.90;;;;;;5058036;28;20593;-60
2023/12/16 06:24:29;;;;;;;12.35;10.48;;;4.90;99.90;;;;;;5057826;28;20236;-60
2023/12/16 06:26:56;;;;;;;15.27;11.20;;;4.90;99.90;;;;;;5057753;28;20586;-60
2023/12/16 06:29:23;;;;;;;14.82;10.02;;;4.80;99.90;;;;;;5057479;28;20237;-58
2023/12/16 06:31:49;;;;;;;13.80;10.40;;;4.80;99.90;;;;;;5057736;28;20214;-61
2023/12/16 06:34:18;;;;;;;16.98;12.27;;;4.80;99.90;;;;;;5057624;28;20234;-59
2023/12/16 06:36:45;;;;;;;14.95;11.13;;;4.80;99.90;;;;;;5057827;28;20210;-60
2023/12/16 06:39:12;;;;;;;13.50;11.80;;;4.70;99.90;;;;;;5057575;28;20202;-61
2023/12/16 06:41:40;;;;;;;13.80;11.32;;;4.70;99.90;;;;;;5057627;28;20206;-59
2023/12/16 06:44:07;;;;;;;16.17;12.27;;;4.70;99.90;;;;;;5057822;28;20229;-61
2023/12/16 06:46:34;;;;;;;15.82;10.55;;;4.70;99.90;;;;;;5057473;28;20210;-60
2023/12/16 06:49:00;;;;;;;17.77;11.40;;;4.60;99.90;;;;;;5057441;28;20226;-60
2023/12/16 06:51:27;;;;;;;13.80;11.88;;;4.60;99.90;;;;;;5057681;28;20202;-61
2023/12/16 06:53:54;;;;;;;14.85;11.75;;;4.60;99.90;;;;;;5057531;28;20226;-59
2023/12/16 06:56:21;;;;;;;16.63;10.82;;;4.60;99.90;;;;;;5057371;28;20592;-59
2023/12/16 06:58:49;;;;;;;11.15;10.00;;;4.60;99.90;;;;;;5057535;28;20271;-61
2023/12/16 07:01:16;;;;;;;17.05;11.68;;;4.60;99.90;;;;;;5055030;28;20322;-61
2023/12/16 07:03:43;;;;;;;11.30;10.20;;;4.60;99.90;;;;;;5054241;28;20230;-58
2023/12/16 07:06:10;;;;;;;12.40;9.35;;;4.60;99.90;;;;;;5054363;28;20292;-61
2023/12/16 07:08:37;;;;;;;16.88;11.15;;;4.60;99.90;;;;;;5053924;28;20715;-60
2023/12/16 07:11:04;;;;;;;14.30;9.98;;;4.60;99.90;;;;;;5054193;28;20206;-60
2023/12/16 07:13:31;;;;;;;11.10;10.00;;;4.60;99.90;;;;;;5053864;28;20230;-56
2023/12/16 07:16:04;;;;;;;11.60;8.93;;;4.60;99.90;;;;;;5052480;28;20213;-59
2023/12/16 07:18:31;;;;;;;11.30;10.13;;;4.60;99.90;;;;;;5053416;28;20569;-60
2023/12/16 07:20:57;;;;;;;13.38;9.75;;;4.60;99.90;;;;;;5053826;28;20218;-61
2023/12/16 07:23:24;;;;;;;12.85;10.63;;;4.60;99.90;;;;;;5053626;28;20233;-58
2023/12/16 07:25:51;;;;;;;14.18;9.90;;;4.60;99.90;;;;;;5054032;28;20581;-60
2023/12/16 07:28:18;;;;;;;12.32;9.93;;;4.60;99.90;;;;;;5053804;28;20210;-60
2023/12/16 07:30:45;;;;;;;13.65;10.88;;;4.60;99.90;;;;;;5053834;28;20316;-59
2023/12/16 07:33:14;;;;;;;15.95;12.48;;;4.60;99.90;;;;;;5053556;28;20230;-60
2023/12/16 07:35:40;;;;;;;12.80;10.75;;;4.60;99.90;;;;;;5053802;28;20222;-61
2023/12/16 07:38:08;;;;;;;17.35;12.25;;;4.60;99.90;;;;;;5053348;28;20590;-58
2023/12/16 07:40:35;;;;;;;15.70;10.70;;;4.60;99.90;;;;;;5053597;28;20202;-60
2023/12/16 07:43:02;;;;;;;20.92;11.77;;;4.60;99.90;;;;;;5053680;28;20614;-60
2023/12/16 07:45:29;;;;;;;16.23;10.43;;;4.60;99.90;;;;;;5053238;28;20217;-58
2023/12/16 07:47:56;;;;;;;16.55;10.32;;;4.60;99.90;;;;;;5052809;28;20198;-61
2023/12/16 07:50:24;;;;;;;13.50;10.23;;;4.70;99.90;;;;;;5053241;28;20230;-61
2023/12/16 07:52:51;;;;;;;13.98;11.30;;;4.70;99.90;;;;;;5053457;28;20316;-61
2023/12/16 07:55:18;;;;;;;17.83;10.10;;;4.70;99.90;;;;;;5053338;28;20201;-61
2023/12/16 07:57:45;;;;;;;14.90;11.85;;;4.80;99.90;;;;;;5053211;28;20792;-60
2023/12/16 08:00:12;;;;;;;15.15;10.82;;;4.80;99.90;;;;;;5053334;28;20209;-61
2023/12/16 08:02:39;;;;;;;18.65;10.65;;;4.80;99.90;;;;;;5053279;28;20313;-59
2023/12/16 08:05:06;;;;;;;14.38;11.02;;;4.90;99.90;;;;;;5053410;28;20210;-60
2023/12/16 08:07:35;;;;;;;17.85;11.80;;;4.80;99.90;;;;;;5053321;28;20228;-59
2023/12/16 08:10:02;;;;;;;14.20;11.95;;;4.80;99.90;;;;;;5053210;28;20609;-61
2023/12/16 08:12:28;;;;;;;13.02;10.52;;;4.90;99.90;;;;;;5052748;28;20313;-61
2023/12/16 08:14:55;;;;;;;17.63;12.63;;;4.90;99.90;;;;;;5052929;28;20216;-60
2023/12/16 08:17:22;;;;;;;15.07;11.00;;;5.00;99.90;;;;;;5052856;28;20206;-61
2023/12/16 08:19:49;;;;;;;14.45;10.60;;;5.00;99.90;;;;;;5052677;28;20210;-58
2023/12/16 08:22:16;;;;;;;16.20;11.13;;;5.00;99.90;;;;;;5052263;28;20198;-57
2023/12/16 08:24:44;;;;;;;20.88;11.98;;;5.10;99.90;;;;;;5052033;28;20206;-61
2023/12/16 08:27:11;;;;;;;22.70;14.85;;;5.10;99.90;;;;;;5032663;28;20936;-60
2023/12/16 08:29:38;;;;;;;19.50;14.18;;;5.10;99.90;;;;;;5032391;28;20572;-61
2023/12/16 08:32:05;;;;;;;21.48;14.88;;;5.10;99.90;;;;;;5032653;28;20211;-59
2023/12/16 08:34:33;;;;;;;20.88;15.35;;;5.20;99.90;;;;;;5035549;28;20214;-61
2023/12/16 08:37:00;;;;;;;18.33;14.52;;;5.20;99.90;;;;;;5049294;28;20202;-60
2023/12/16 08:39:27;;;;;;;22.60;17.73;;;5.30;99.90;;;;;;5052150;28;20209;-60
2023/12/16 08:41:55;;;;;;;19.55;15.10;;;5.30;99.90;;;;;;5052002;28;20221;-60
2023/12/16 08:44:22;;;;;;;19.90;16.55;;;5.30;99.90;;;;;;5051676;28;20746;-61
2023/12/16 08:46:49;;;;;;;18.15;15.55;;;5.40;99.90;;;;;;5051968;28;20214;-61
2023/12/16 08:49:16;;;;;;;23.45;15.95;;;5.40;99.90;;;;;;5051511;28;20620;-60
2023/12/16 08:51:43;;;;;;;22.73;17.35;;;5.50;99.90;;;;;;5051468;28;20202;-60
2023/12/16 08:54:10;;;;;;;18.48;14.48;;;5.50;99.90;;;;;;5051531;28;20246;-59
2023/12/16 08:56:37;;;;;;;23.30;17.20;;;5.60;99.90;;;;;;5051654;28;20211;-61
2023/12/16 08:59:05;;;;;;;21.88;17.63;;;5.70;99.90;;;;;;5042546;28;20211;-59
2023/12/16 09:01:33;;;;;;;20.88;17.38;;;5.70;99.90;;;;;;5049949;28;20298;-59
2023/12/16 09:04:00;;;;;;;20.70;16.52;;;5.70;99.90;;;;;;5047929;28;20233;-61
2023/12/16 09:06:27;;;;;;;22.30;18.45;;;5.80;99.90;;;;;;5051329;28;20216;-61
2023/12/16 09:08:54;;;;;;;26.27;17.70;;;5.90;99.90;;;;;;5049352;28;20206;-61
2023/12/16 09:11:21;;;;;;;22.63;19.13;;;5.90;99.90;;;;;;5045936;28;20309;-61
2023/12/16 09:13:48;;;;;;;25.23;18.83;;;5.90;99.90;;;;;;5047177;28;20249;-61
2023/12/16 09:16:16;;;;;;;22.08;19.42;;;6.00;99.90;;;;;;5047627;28;20213;-59
2023/12/16 09:18:43;;;;;;;19.83;18.00;;;6.10;99.90;;;;;;5046079;28;20203;-61
2023/12/16 09:21:09;;;;;;;21.08;18.98;;;6.10;99.90;;;;;;5044924;28;20222;-61
2023/12/16 09:23:36;;;;;;;23.40;18.83;;;6.20;99.90;;;;;;5045714;28;20231;-61
2023/12/16 09:26:03;;;;;;;20.67;18.38;;;6.20;99.90;;;;;;5048538;28;20209;-60
2023/12/16 09:28:30;;;;;;;17.77;14.30;;;6.20;99.90;;;;;;5048554;28;20293;-59
2023/12/16 09:30:57;;;;;;;17.35;15.20;;;6.30;99.90;;;;;;5050645;28;20316;-61
2023/12/16 09:33:25;;;;;;;20.15;17.33;;;6.30;99.90;;;;;;5049442;28;20230;-60
2023/12/16 09:35:52;;;;;;;18.05;14.43;;;6.40;99.90;;;;;;5049516;28;20298;-61
2023/12/16 09:38:19;;;;;;;22.67;13.60;;;6.40;99.90;;;;;;5047962;28;20297;-61
2023/12/16 09:40:46;;;;;;;17.10;13.00;;;6.50;99.90;;;;;;5041592;28;20277;-61
2023/12/16 09:43:16;;;;;;;14.57;11.90;;;6.50;99.90;;;;;;5038730;28;20226;-60
2023/12/16 09:45:46;;;;;;;37.20;24.33;;;6.60;99.90;;;;;;5043562;28;20573;-61
2023/12/16 09:48:15;;;;;;;27.35;21.90;;;6.70;99.90;;;;;;5047877;28;20199;-61
2023/12/16 09:50:44;;;;;;;19.63;14.07;;;6.80;99.90;;;;;;5051033;28;20237;-61
2023/12/16 09:53:12;;;;;;;17.70;14.73;;;6.80;99.90;;;;;;5049737;28;20308;-60
2023/12/16 09:55:39;;;;;;;20.67;17.60;;;6.90;99.90;;;;;;5051025;28;20329;-61
2023/12/16 09:58:07;;;;;;;28.95;20.35;;;6.90;99.90;;;;;;5050128;28;20622;-60
2023/12/16 10:00:36;;;;;;;22.17;17.92;;;7.00;99.90;;;;;;5051245;28;20289;-56
2023/12/16 10:03:04;;;;;;;25.80;16.88;;;7.00;99.90;;;;;;5050275;28;20232;-61
2023/12/16 10:05:33;;;;;;;19.65;16.17;;;7.00;99.90;;;;;;5050466;28;20207;-59
2023/12/16 10:08:04;;;;;;;16.35;13.45;;;7.10;99.90;;;;;;5049701;28;20293;-60
2023/12/16 10:10:31;;;;;;;17.70;13.57;;;7.10;99.90;;;;;;5051036;28;20229;-61
2023/12/16 10:13:01;;;;;;;14.95;12.10;;;7.10;99.90;;;;;;5050393;28;20228;-59
2023/12/16 10:15:32;;;;;;;15.98;11.55;;;7.20;99.90;;;;;;5049870;28;20264;-61
2023/12/16 10:18:01;;;;;;;15.60;11.52;;;7.20;99.90;;;;;;5049873;28;20202;-61
2023/12/16 10:20:28;;;;;;;20.02;13.10;;;7.20;99.90;;;;;;5050798;28;20218;-61
2023/12/16 10:22:56;;;;;;;17.00;11.30;;;7.30;99.90;;;;;;5050038;28;20671;-60
2023/12/16 10:25:25;;;;;;;17.55;13.07;;;7.20;99.90;;;;;;5050635;28;20213;-60
2023/12/16 10:27:58;;;;;;;17.58;12.43;;;7.30;99.90;;;;;;5050169;28;20684;-60
2023/12/16 10:30:26;;;;;;;13.35;11.95;;;7.30;99.90;;;;;;5050435;28;20302;-58
2023/12/16 10:32:55;;;;;;;13.57;11.73;;;7.30;99.90;;;;;;5049435;28;20257;-58
2023/12/16 10:35:23;;;;;;;12.73;11.00;;;7.30;99.90;;;;;;5050867;28;20298;-59
2023/12/16 10:37:50;;;;;;;18.42;13.65;;;7.30;99.90;;;;;;5053567;28;20234;-61
2023/12/16 10:40:18;;;;;;;18.13;12.23;;;7.40;99.90;;;;;;5054192;28;20209;-60
2023/12/16 10:42:46;;;;;;;21.23;13.20;;;7.50;99.90;;;;;;5054403;28;20230;-58
2023/12/16 10:45:13;;;;;;;18.08;11.45;;;7.50;99.90;;;;;;5054240;28;20201;-59
2023/12/16 10:47:41;;;;;;;12.88;11.20;;;7.60;99.90;;;;;;5054059;28;20648;-59
2023/12/16 10:50:09;;;;;;;16.60;11.05;;;7.70;99.90;;;;;;5054396;28;20221;-58
2023/12/16 10:52:40;;;;;;;16.25;11.18;;;7.80;99.90;;;;;;5054429;28;20234;-62
2023/12/16 10:55:13;;;;;;;15.48;12.20;;;7.90;99.90;;;;;;5052044;28;20579;-61
2023/12/16 10:57:48;;;;;;;14.65;10.45;;;8.00;99.90;;;;;;5052863;28;20581;-61
2023/12/16 11:00:21;;;;;;;15.45;10.45;;;8.00;99.90;;;;;;5053420;28;20321;-61
2023/12/16 11:02:56;;;;;;;15.52;9.77;;;8.00;99.90;;;;;;5053255;28;20231;-61
2023/12/16 11:05:28;;;;;;;11.35;9.63;;;8.10;99.90;;;;;;5053551;28;20289;-60
2023/12/16 11:07:57;;;;;;;14.50;8.93;;;8.00;99.90;;;;;;5053572;28;20644;-61
2023/12/16 11:10:24;;;;;;;14.45;9.77;;;8.00;99.90;;;;;;5053444;28;20233;-59
2023/12/16 11:12:53;;;;;;;12.43;10.07;;;7.90;99.90;;;;;;5053657;28;20230;-59
2023/12/16 11:15:21;;;;;;;10.93;9.07;;;7.90;99.90;;;;;;5053740;28;20589;-61
2023/12/16 11:17:54;;;;;;;12.40;8.32;;;7.90;99.90;;;;;;5053371;28;21024;-61
2023/12/16 11:20:23;;;;;;;12.07;9.05;;;8.00;99.90;;;;;;5053739;28;20210;-59
2023/12/16 11:22:55;;;;;;;11.00;8.35;;;8.00;99.90;;;;;;5053367;28;20313;-59
2023/12/16 11:25:22;;;;;;;11.40;9.15;;;8.10;99.90;;;;;;5053556;28;20633;-60
2023/12/16 11:27:50;;;;;;;11.02;8.98;;;8.20;99.90;;;;;;5052506;28;20290;-61
2023/12/16 11:30:21;;;;;;;15.88;10.77;;;8.20;99.90;;;;;;5043137;28;20207;-60
2023/12/16 11:32:53;;;;;;;14.27;10.05;;;8.20;99.90;;;;;;5048089;28;20256;-62
2023/12/16 11:35:47;;;;;;;13.80;8.70;;;8.30;99.90;;;;;;5051504;28;20221;-57
2023/12/16 11:38:46;;;;;;;10.73;9.73;;;8.30;99.90;;;;;;5052474;28;20297;-58
2023/12/16 11:41:43;;;;;;;13.93;7.20;;;8.50;99.90;;;;;;5010959;28;20481;-59
2023/12/16 11:44:11;;;;;;;10.48;8.43;;;8.50;99.90;;;;;;5052482;28;20864;-61
2023/12/16 11:46:43;;;;;;;11.63;7.30;;;8.50;99.90;;;;;;5053061;28;20222;-61
2023/12/16 11:49:11;;;;;;;7.45;5.88;;;8.50;99.90;;;;;;5050991;28;20715;-57
2023/12/16 11:51:39;;;;;;;7.80;6.30;;;8.40;99.90;;;;;;5034348;28;20321;-59
2023/12/16 11:54:07;;;;;;;15.35;6.88;;;8.40;99.90;;;;;;5052847;28;20233;-61
2023/12/16 11:56:34;;;;;;;8.13;6.15;;;8.30;99.90;;;;;;5052994;28;20302;-59
2023/12/16 11:59:02;;;;;;;8.88;6.97;;;8.30;99.90;;;;;;5052906;28;20306;-59
2023/12/16 12:01:31;;;;;;;11.77;6.53;;;8.30;99.90;;;;;;5052180;28;20663;-61
2023/12/16 12:04:01;;;;;;;8.85;6.80;;;8.30;99.90;;;;;;5052791;28;20222;-60
2023/12/16 12:06:28;;;;;;;8.30;6.30;;;8.30;99.90;;;;;;5052471;28;20711;-61
2023/12/16 12:08:54;;;;;;;7.82;6.50;;;8.30;99.90;;;;;;5052854;28;20698;-60
2023/12/16 12:11:22;;;;;;;10.38;5.68;;;8.30;99.90;;;;;;5052910;28;20262;-62
2023/12/16 12:13:50;;;;;;;8.77;5.07;;;8.30;99.90;;;;;;5052706;28;20669;-58
2023/12/16 12:16:17;;;;;;;6.47;4.70;;;8.40;99.90;;;;;;5052633;28;20257;-60
2023/12/16 12:18:44;;;;;;;5.15;4.75;;;8.40;99.90;;;;;;5052716;28;20798;-61
2023/12/16 12:21:12;;;;;;;8.38;5.32;;;8.40;99.90;;;;;;5052563;28;20290;-61
2023/12/16 12:23:40;;;;;;;5.18;4.55;;;8.50;99.90;;;;;;5052741;28;20313;-59
2023/12/16 12:26:07;;;;;;;6.50;5.05;;;8.40;99.90;;;;;;5052416;28;20681;-60
2023/12/16 12:28:34;;;;;;;5.97;5.33;;;8.40;99.90;;;;;;5052262;28;20719;-59
2023/12/16 12:31:06;;;;;;;7.45;6.57;;;8.40;99.90;;;;;;5052506;28;20484;-61
2023/12/16 12:33:33;;;;;;;5.85;4.38;;;8.50;99.90;;;;;;5052318;28;20237;-57
2023/12/16 12:36:00;;;;;;;6.75;4.45;;;8.50;99.90;;;;;;5051925;28;20202;-61
2023/12/16 12:38:29;;;;;;;8.00;4.30;;;8.50;99.90;;;;;;5051969;28;20306;-59
2023/12/16 12:41:01;;;;;;;6.68;4.50;;;8.50;99.90;;;;;;5052196;28;20239;-59